Time;durP1;ratioP1;P1;durP2;ratioP2;P2;SDS_P1;SDS_P2;PMS_P1;PMS_P2;Temp;Humidity;BMP_temperature;BMP_pressure;BME280_temperature;BME280_humidity;BME280_pressure;Samples;Min_cycle;Max_cycle;Signal;HPM_P1;HPM_P2
2022/05/06 00:01:52;;;;;;;5.70;4.20;;;;;;;10.79;100.00;63105.78;5098423;28;20423;-74
2022/05/06 00:04:19;;;;;;;3.83;3.53;;;;;;;10.81;100.00;63112.94;5086476;28;20220;-73
2022/05/06 00:06:46;;;;;;;4.82;4.38;;;;;;;10.78;100.00;63109.31;5083872;28;20291;-73
2022/05/06 00:09:13;;;;;;;4.25;3.95;;;;;;;10.86;100.00;63115.03;5098495;28;20302;-74
2022/05/06 00:11:41;;;;;;;4.20;3.90;;;;;;;10.88;100.00;63122.72;5106837;28;20263;-74
2022/05/06 00:14:08;;;;;;;5.10;4.75;;;;;;;10.92;100.00;63121.25;5105148;28;20582;-73
2022/05/06 00:16:35;;;;;;;5.15;4.75;;;;;;;10.90;100.00;63122.25;5102443;28;20199;-74
2022/05/06 00:19:02;;;;;;;5.97;4.90;;;;;;;10.90;100.00;63124.81;5086572;28;20227;-73
2022/05/06 00:21:29;;;;;;;6.07;5.57;;;;;;;10.91;100.00;63125.31;5090206;28;20211;-73
2022/05/06 00:23:55;;;;;;;7.05;6.45;;;;;;;11.01;100.00;63133.63;5093486;28;20440;-73
2022/05/06 00:26:22;;;;;;;6.38;5.95;;;;;;;10.98;100.00;63127.47;5085695;28;20227;-74
2022/05/06 00:28:51;;;;;;;6.65;6.05;;;;;;;11.05;100.00;63140.34;5085657;28;20239;-73
2022/05/06 00:31:17;;;;;;;7.45;6.75;;;;;;;11.14;100.00;63144.03;5086390;28;20205;-73
2022/05/06 00:33:44;;;;;;;7.03;6.15;;;;;;;11.11;100.00;63141.44;5085601;28;20210;-75
2022/05/06 00:36:11;;;;;;;6.95;6.35;;;;;;;11.09;100.00;63141.94;5096817;28;20196;-72
2022/05/06 00:38:38;;;;;;;7.20;6.65;;;;;;;11.18;100.00;63148.69;5100568;28;20512;-73
2022/05/06 00:41:05;;;;;;;8.63;7.07;;;;;;;11.10;100.00;63142.97;5106783;28;20481;-75
2022/05/06 00:43:32;;;;;;;8.70;7.18;;;;;;;11.01;100.00;63136.19;5104034;28;20253;-74
2022/05/06 00:46:00;;;;;;;8.63;7.82;;;;;;;11.04;100.00;63141.31;5099896;28;20232;-74
2022/05/06 00:48:28;;;;;;;9.43;8.55;;;;;;;11.02;100.00;63134.69;5092861;28;20554;-73
2022/05/06 00:50:58;;;;;;;9.00;8.27;;;;;;;10.95;100.00;63132.53;5098616;28;20219;-73
2022/05/06 00:53:25;;;;;;;8.30;7.65;;;;;;;10.92;100.00;63124.34;5094429;28;20211;-74
2022/05/06 00:55:52;;;;;;;9.13;8.05;;;;;;;11.06;100.00;63138.31;5088706;28;20260;-74
2022/05/06 00:58:20;;;;;;;8.10;7.50;;;;;;;11.00;100.00;63132.09;5102916;28;20371;-74
2022/05/06 01:00:47;;;;;;;9.18;8.23;;;;;;;10.89;100.00;63120.72;5090958;28;20435;-73
2022/05/06 01:03:15;;;;;;;9.23;8.38;;;;;;;10.98;100.00;63130.53;5087468;28;20227;-73
2022/05/06 01:05:42;;;;;;;11.13;8.85;;;;;;;11.02;100.00;63134.69;5094958;28;20226;-72
2022/05/06 01:08:10;;;;;;;9.02;8.20;;;;;;;11.00;100.00;63129.53;5097653;28;20230;-74
2022/05/06 01:10:37;;;;;;;10.50;9.05;;;;;;;10.98;100.00;63133.09;5105305;28;20227;-74
2022/05/06 01:13:04;;;;;;;9.55;8.48;;;;;;;10.99;100.00;63131.06;5101711;28;20393;-74
2022/05/06 01:15:31;;;;;;;8.93;8.10;;;;;;;11.03;100.00;63135.19;5101700;28;20539;-73
2022/05/06 01:17:59;;;;;;;10.45;9.25;;;;;;;10.97;100.00;63128.97;5084841;28;20200;-73
2022/05/06 01:20:28;;;;;;;11.07;8.40;;;;;;;10.92;100.00;63126.34;5085691;28;20266;-74
2022/05/06 01:22:58;;;;;;;8.95;7.47;;;;;;;10.88;100.00;63122.72;5103552;28;20208;-73
2022/05/06 01:25:26;;;;;;;7.93;7.22;;;;;;;10.86;100.00;63120.66;5102908;28;20287;-74
2022/05/06 01:27:56;;;;;;;6.85;6.22;;;;;;;10.86;100.00;63118.09;5093692;28;20528;-73
2022/05/06 01:30:31;;;;;;;9.90;7.07;;;;;;;10.84;100.00;63115.50;5102778;28;20229;-73
2022/05/06 01:33:00;;;;;;;7.35;6.65;;;;;;;10.88;100.00;63120.19;5105427;28;20500;-74
2022/05/06 01:35:29;;;;;;;8.35;6.90;;;;;;;10.89;100.00;63123.25;5097033;28;20538;-74
2022/05/06 01:38:03;;;;;;;6.82;6.32;;;;;;;11.00;100.00;63132.09;5092353;28;20200;-74
2022/05/06 01:40:34;;;;;;;6.22;5.10;;;;;;;10.96;100.00;63130.50;5102590;28;20220;-73
2022/05/06 01:43:03;;;;;;;6.43;5.93;;;;;;;10.90;100.00;63119.72;5105261;28;20195;-73
2022/05/06 01:45:33;;;;;;;6.75;6.07;;;;;;;10.89;100.00;63123.25;5098086;28;20231;-73
2022/05/06 01:48:03;;;;;;;6.88;6.28;;;;;;;10.83;100.00;63111.94;5085297;28;20416;-73
2022/05/06 01:50:32;;;;;;;6.38;5.85;;;;;;;10.83;100.00;63117.03;5085413;28;20279;-74
2022/05/06 01:53:00;;;;;;;6.85;6.20;;;;;;;10.80;100.00;63106.28;5089279;28;20518;-73
2022/05/06 01:55:27;;;;;;;7.18;6.57;;;;;;;10.74;100.00;63105.16;5104647;28;20227;-73
2022/05/06 01:57:54;;;;;;;7.40;6.07;;;;;;;10.70;100.00;63098.50;5088949;28;20201;-73
2022/05/06 02:00:20;;;;;;;7.05;6.10;;;;;;;10.67;100.00;63098.44;5084830;28;20216;-73
2022/05/06 02:02:47;;;;;;;6.78;6.18;;;;;;;10.53;100.00;63086.50;5087673;28;20196;-73
2022/05/06 02:05:19;;;;;;;6.28;5.78;;;;;;;10.50;100.00;63078.31;5094429;28;20228;-73
2022/05/06 02:07:48;;;;;;;9.15;6.57;;;;;;;10.54;100.00;63087.03;5092938;28;20235;-73
2022/05/06 02:10:17;;;;;;;6.93;6.38;;;;;;;10.46;100.00;63076.69;5086013;28;20220;-73
2022/05/06 02:12:44;;;;;;;8.90;6.97;;;;;;;10.40;100.00;63067.97;5087918;28;20396;-73
2022/05/06 02:15:12;;;;;;;7.97;7.30;;;;;;;10.32;100.00;63065.28;5089294;28;20224;-73
2022/05/06 02:17:40;;;;;;;7.35;6.72;;;;;;;10.29;100.00;63059.63;5084154;28;20261;-74
2022/05/06 02:20:09;;;;;;;7.20;6.28;;;;;;;10.27;100.00;63059.59;5083816;28;20220;-74
2022/05/06 02:22:37;;;;;;;11.63;7.70;;;;;;;10.26;100.00;63059.09;5084608;28;20240;-73
2022/05/06 02:25:05;;;;;;;11.27;8.30;;;;;;;10.26;100.00;63059.09;5095114;28;20272;-73
2022/05/06 02:27:33;;;;;;;10.23;8.65;;;;;;;10.28;100.00;63056.06;5104226;28;20255;-73
2022/05/06 02:35:28;;;;;;;8.57;7.78;;;;;;;10.22;100.00;63049.84;5084124;28;20232;-73
2022/05/06 02:37:55;;;;;;;10.82;9.52;;;;;;;10.16;100.00;63051.25;5083789;28;20212;-73
2022/05/06 02:40:22;;;;;;;10.70;9.52;;;;;;;10.08;100.00;63040.44;5100455;28;20521;-73
2022/05/06 02:42:50;;;;;;;10.73;9.65;;;;;;;10.18;100.00;63045.69;5100779;28;20200;-74
2022/05/06 02:45:17;;;;;;;10.20;9.27;;;;;;;10.17;100.00;63047.22;5096437;28;20422;-73
2022/05/06 02:47:45;;;;;;;12.02;9.68;;;;;;;10.19;100.00;63051.31;5086929;28;20242;-73
2022/05/06 02:50:12;;;;;;;10.50;9.57;;;;;;;10.23;100.00;63050.38;5096668;28;20260;-73
2022/05/06 02:52:38;;;;;;;9.80;8.85;;;;;;;10.26;100.00;63053.47;5094010;28;20391;-73
2022/05/06 02:55:06;;;;;;;12.05;10.77;;;;;;;10.21;100.00;63053.91;5100390;28;20288;-74
2022/05/06 02:57:33;;;;;;;11.23;9.75;;;;;;;10.19;100.00;63046.75;5092975;28;20200;-74
2022/05/06 03:00:01;;;;;;;9.95;9.05;;;;;;;10.21;100.00;63051.38;5083671;28;20281;-73
2022/05/06 03:02:28;;;;;;;9.70;8.80;;;;;;;10.26;100.00;63056.00;5082328;28;20200;-75
2022/05/06 03:04:55;;;;;;;10.20;9.15;;;;;;;10.24;100.00;63057.00;5100218;28;20220;-74
2022/05/06 03:07:22;;;;;;;10.55;9.18;;;;;;;10.24;100.00;63051.41;5086990;28;20203;-73
2022/05/06 03:09:49;;;;;;;11.90;9.68;;;;;;;10.21;100.00;63055.94;5086531;28;20224;-74
2022/05/06 03:12:17;;;;;;;11.18;8.95;;;;;;;10.17;100.00;63051.78;5083075;28;20204;-73
2022/05/06 03:14:45;;;;;;;9.82;8.85;;;;;;;10.20;100.00;63052.34;5092706;28;20261;-74
2022/05/06 03:17:13;;;;;;;10.13;9.13;;;;;;;10.27;100.00;63057.56;5082974;28;20217;-73
2022/05/06 03:19:40;;;;;;;9.38;8.48;;;;;;;10.22;100.00;63052.38;5086672;28;20228;-73
2022/05/06 03:22:08;;;;;;;11.20;9.13;;;;;;;10.22;100.00;63049.31;5099748;28;20197;-73
2022/05/06 03:24:35;;;;;;;10.50;9.02;;;;;;;10.34;100.00;63061.75;5091780;28;20216;-73
2022/05/06 03:27:02;;;;;;;11.23;9.23;;;;;;;10.45;100.00;63078.22;5083977;28;20507;-75
2022/05/06 03:29:30;;;;;;;12.00;9.00;;;;;;;10.52;100.00;63080.38;5095039;28;20314;-73
2022/05/06 03:31:58;;;;;;;10.52;8.95;;;;;;;10.52;100.00;63082.91;5082447;28;20219;-73
2022/05/06 03:34:26;;;;;;;9.65;8.75;;;;;;;10.63;100.00;63096.84;5089824;28;20287;-73
2022/05/06 03:36:53;;;;;;;10.30;9.25;;;;;;;10.70;100.00;63101.53;5089356;28;20199;-73
2022/05/06 03:39:20;;;;;;;9.20;8.35;;;;;;;10.62;100.00;63095.81;5083146;28;20449;-72
2022/05/06 03:41:46;;;;;;;9.02;8.13;;;;;;;10.61;100.00;63086.63;5084111;28;20200;-73
2022/05/06 03:44:13;;;;;;;10.23;8.30;;;;;;;10.64;100.00;63089.72;5085661;28;20221;-75
2022/05/06 03:46:40;;;;;;;8.27;7.57;;;;;;;10.72;100.00;63103.63;5081739;28;20508;-73
2022/05/06 03:49:07;;;;;;;11.60;8.38;;;;;;;10.81;100.00;63112.41;5097757;28;20237;-74
2022/05/06 03:51:34;;;;;;;8.32;7.63;;;;;;;10.65;100.00;63095.88;5097392;28;20255;-74
2022/05/06 03:54:02;;;;;;;12.25;8.73;;;;;;;10.51;100.00;63078.81;5094639;28;20216;-73
2022/05/06 03:56:29;;;;;;;10.40;8.60;;;;;;;10.42;100.00;63073.06;5096194;28;20259;-73
2022/05/06 03:58:56;;;;;;;10.25;9.07;;;;;;;10.29;100.00;63059.63;5103013;28;20272;-73
2022/05/06 04:01:22;;;;;;;9.10;8.23;;;;;;;10.29;100.00;63059.63;5088403;28;20197;-72
2022/05/06 04:03:50;;;;;;;9.18;8.32;;;;;;;10.43;100.00;63073.59;5088320;28;20200;-73
2022/05/06 04:06:17;;;;;;;8.98;8.18;;;;;;;10.55;100.00;63086.03;5084476;28;20200;-72
2022/05/06 04:08:45;;;;;;;9.15;7.28;;;;;;;10.66;100.00;63099.44;5096742;28;20234;-72
2022/05/06 04:11:13;;;;;;;8.95;8.10;;;;;;;10.62;100.00;63092.75;5086705;28;20269;-73
2022/05/06 04:13:40;;;;;;;9.93;8.63;;;;;;;10.49;100.00;63077.78;5093031;28;20254;-74
2022/05/06 04:16:07;;;;;;;10.27;8.77;;;;;;;10.34;100.00;63067.34;5087014;28;20485;-74
2022/05/06 04:18:34;;;;;;;10.45;9.48;;;;;;;10.55;100.00;63085.50;5092318;28;20530;-73
2022/05/06 04:23:47;;;;;;;10.73;8.23;;;;;;;10.70;100.00;63101.03;5083010;28;20199;-73
2022/05/06 04:26:14;;;;;;;10.32;9.15;;;;;;;10.73;100.00;63101.59;5084438;28;20422;-74
2022/05/06 04:28:43;;;;;;;9.73;8.18;;;;;;;10.80;100.00;63109.38;5082257;28;20323;-74
2022/05/06 04:31:10;;;;;;;10.38;8.73;;;;;;;10.89;100.00;63120.72;5082267;28;20200;-74
2022/05/06 04:33:39;;;;;;;8.75;7.78;;;;;;;10.97;100.00;63128.97;5088431;28;20204;-74
2022/05/06 04:36:06;;;;;;;9.68;8.63;;;;;;;11.12;100.00;63141.97;5082594;28;20228;-73
2022/05/06 04:38:33;;;;;;;7.85;7.25;;;;;;;11.20;100.00;63150.25;5081997;28;20200;-73
2022/05/06 04:41:02;;;;;;;8.32;7.43;;;;;;;11.26;100.00;63159.53;5094731;28;20291;-73
2022/05/06 04:43:29;;;;;;;8.82;7.45;;;;;;;11.33;100.00;63163.72;5085168;28;20207;-75
2022/05/06 04:45:56;;;;;;;7.57;6.75;;;;;;;11.34;100.00;63165.25;5086010;28;20221;-75
2022/05/06 04:48:24;;;;;;;10.60;8.15;;;;;;;11.31;100.00;63162.16;5084534;28;20233;-73
2022/05/06 04:50:51;;;;;;;7.80;7.05;;;;;;;11.06;100.00;63135.75;5089542;28;20406;-74
2022/05/06 04:53:19;;;;;;;9.30;8.30;;;;;;;10.72;100.00;63103.63;5085711;28;20204;-74
2022/05/06 04:55:47;;;;;;;10.38;9.07;;;;;;;10.62;100.00;63092.75;5099688;28;20215;-73
2022/05/06 04:58:16;;;;;;;11.82;8.90;;;;;;;10.36;100.00;63066.34;5099248;28;20204;-74
2022/05/06 05:00:43;;;;;;;10.60;8.63;;;;;;;10.65;100.00;63096.38;5086271;28;20544;-73
2022/05/06 05:03:10;;;;;;;14.82;10.57;;;;;;;10.61;100.00;63084.06;5085607;28;20220;-75
2022/05/06 05:05:37;;;;;;;10.23;9.23;;;;;;;10.74;100.00;63102.63;5085356;28;20217;-74
2022/05/06 05:08:04;;;;;;;10.80;8.85;;;;;;;11.03;100.00;63135.72;5094797;28;20200;-73
2022/05/06 05:10:31;;;;;;;15.25;8.90;;;;;;;11.23;100.00;63158.97;5101956;28;20227;-74
2022/05/06 05:12:58;;;;;;;9.98;9.07;;;;;;;11.48;100.00;63181.78;5085352;28;20428;-75
2022/05/06 05:15:26;;;;;;;12.45;9.13;;;;;;;11.68;100.00;63199.47;5089822;28;20251;-74
2022/05/06 05:17:53;;;;;;;9.68;8.77;;;;;;;11.84;100.00;63216.06;5084747;28;20220;-74
2022/05/06 05:20:20;;;;;;;9.23;8.32;;;;;;;12.02;100.00;63237.25;5096745;28;20223;-77
2022/05/06 05:22:47;;;;;;;8.85;8.02;;;;;;;12.13;100.00;63248.66;5086787;28;20197;-75
2022/05/06 05:25:14;;;;;;;12.20;8.35;;;;;;;12.29;100.00;63265.22;5092561;28;20269;-74
2022/05/06 05:27:41;;;;;;;8.63;7.85;;;;;;;12.46;100.00;63283.38;5085715;28;20200;-75
2022/05/06 05:30:10;;;;;;;8.27;7.45;;;;;;;12.63;100.00;63303.03;5093617;28;20294;-74
2022/05/06 05:32:40;;;;;;;8.27;7.57;;;;;;;12.82;100.00;63320.19;5087133;28;20517;-76
2022/05/06 05:35:07;;;;;;;8.63;7.72;;;;;;;12.58;100.00;63295.81;5101835;28;20235;-74
2022/05/06 05:37:35;;;;;;;8.45;7.65;;;;;;;12.56;100.00;63293.22;5085325;28;20197;-74
2022/05/06 05:40:02;;;;;;;10.85;7.97;;;;;;;12.79;100.00;63314.50;5085546;28;20228;-75
2022/05/06 05:42:29;;;;;;;10.38;7.50;;;;;;;12.60;100.00;63303.00;5091192;28;20192;-75
2022/05/06 05:50:31;;;;;;;8.23;7.38;;;;;;;12.62;99.67;63297.41;5068017;28;20255;-74
2022/05/06 05:52:58;;;;;;;8.48;7.70;;;;;;;13.00;99.68;63335.78;5090115;28;20192;-74
2022/05/06 05:55:25;;;;;;;9.15;7.18;;;;;;;12.89;99.16;63324.38;5099207;28;20232;-75
2022/05/06 05:57:51;;;;;;;10.32;8.30;;;;;;;13.11;98.64;63347.22;5105549;28;20553;-74
2022/05/06 06:00:19;;;;;;;10.13;8.27;;;;;;;13.23;98.60;63360.19;5105130;28;20219;-74
2022/05/06 06:02:47;;;;;;;11.73;8.32;;;;;;;13.25;97.53;63362.25;5099459;28;20204;-74
2022/05/06 06:05:14;;;;;;;10.55;8.45;;;;;;;13.64;96.42;63409.88;5087785;28;20447;-73
2022/05/06 06:07:41;;;;;;;8.93;5.97;;;;;;;13.76;92.89;63412.09;5084892;28;20200;-73
2022/05/06 06:10:09;;;;;;;6.53;5.93;;;;;;;14.08;90.62;63449.91;5087291;28;20457;-74
2022/05/06 06:12:36;;;;;;;5.85;5.35;;;;;;;14.55;87.16;63501.28;5089066;28;20196;-73
2022/05/06 06:15:03;;;;;;;5.55;5.05;;;;;;;14.92;82.62;63537.16;5104619;28;20222;-73
2022/05/06 06:17:30;;;;;;;6.30;5.50;;;;;;;15.02;83.01;63548.06;5092125;28;20192;-75
2022/05/06 06:19:58;;;;;;;5.53;5.00;;;;;;;15.43;81.22;63594.81;5083786;28;20524;-74
2022/05/06 06:22:25;;;;;;;5.03;4.63;;;;;;;15.71;76.77;63613.63;5093671;28;20443;-75
2022/05/06 06:24:52;;;;;;;6.90;5.38;;;;;;;15.98;74.66;63651.97;5100172;28;20227;-75
2022/05/06 06:27:19;;;;;;;5.80;5.38;;;;;;;16.34;72.82;63684.28;5086548;28;20547;-73
2022/05/06 06:29:49;;;;;;;4.93;4.63;;;;;;;16.51;70.72;63704.56;5094190;28;20281;-75
2022/05/06 06:32:16;;;;;;;6.00;5.30;;;;;;;16.75;69.47;63726.44;5102675;28;20211;-74
2022/05/06 06:34:43;;;;;;;6.30;4.78;;;;;;;16.81;67.96;63735.25;5088468;28;20211;-75
2022/05/06 06:37:12;;;;;;;5.80;5.05;;;;;;;16.68;66.68;63716.59;5087715;28;20246;-75
2022/05/06 06:39:38;;;;;;;5.50;5.00;;;;;;;16.81;67.03;63730.09;5086230;28;20249;-74
2022/05/06 06:42:06;;;;;;;5.28;4.88;;;;;;;17.05;66.71;63762.81;5095625;28;20202;-73
2022/05/06 06:44:33;;;;;;;5.25;4.85;;;;;;;17.09;65.06;63766.97;5086975;28;20298;-75
2022/05/06 06:47:00;;;;;;;6.38;5.50;;;;;;;17.18;64.32;63774.28;5102829;28;20229;-74
2022/05/06 06:49:27;;;;;;;5.97;5.47;;;;;;;17.05;64.50;63760.25;5098439;28;20316;-74
2022/05/06 06:51:53;;;;;;;6.10;5.60;;;;;;;16.99;64.75;63749.38;5097604;28;20383;-74
2022/05/06 06:54:22;;;;;;;6.78;5.40;;;;;;;17.15;64.68;63768.56;5083601;28;20265;-74
2022/05/06 06:56:48;;;;;;;5.68;5.18;;;;;;;16.88;65.67;63742.53;5085315;28;20531;-75
2022/05/06 06:59:15;;;;;;;5.55;5.20;;;;;;;17.09;66.53;63761.81;5086019;28;20417;-74
2022/05/06 07:01:42;;;;;;;6.10;5.70;;;;;;;17.20;66.15;63775.84;5092658;28;20207;-75
2022/05/06 07:04:09;;;;;;;6.13;5.63;;;;;;;17.33;66.77;63789.38;5090298;28;20221;-74
2022/05/06 07:12:07;;;;;;;6.93;6.03;;;;;;;17.47;66.87;63800.88;5083495;28;20277;-74
2022/05/06 07:14:35;;;;;;;8.38;6.18;;;;;;;17.59;65.68;63813.88;5088430;28;20215;-75
2022/05/06 07:17:05;;;;;;;7.60;5.88;;;;;;;17.33;65.85;63782.19;5085002;28;20206;-74
2022/05/06 07:19:32;;;;;;;6.07;5.68;;;;;;;17.47;64.53;63803.97;5088116;28;20223;-74
2022/05/06 07:21:59;;;;;;;6.20;5.60;;;;;;;17.50;65.25;63807.09;5089614;28;20199;-74
2022/05/06 07:24:27;;;;;;;6.18;5.60;;;;;;;17.63;66.05;63823.22;5093231;28;20520;-73
2022/05/06 07:26:55;;;;;;;5.95;5.30;;;;;;;17.58;63.60;63814.91;5086046;28;20505;-74
2022/05/06 07:29:22;;;;;;;6.45;5.80;;;;;;;17.44;65.88;63803.41;5086579;28;20497;-74
2022/05/06 07:31:49;;;;;;;7.57;5.28;;;;;;;17.04;67.09;63757.13;5081024;28;20196;-73
2022/05/06 07:34:16;;;;;;;5.75;5.15;;;;;;;17.03;67.72;63755.59;5085804;28;20227;-74
2022/05/06 07:36:43;;;;;;;9.55;5.68;;;;;;;17.01;66.41;63761.75;5085587;28;20497;-75
2022/05/06 07:39:11;;;;;;;5.53;5.13;;;;;;;17.18;65.93;63771.72;5082495;28;20540;-75
2022/05/06 07:41:40;;;;;;;5.50;5.10;;;;;;;16.77;68.64;63734.19;5093509;28;20207;-73
2022/05/06 07:44:07;;;;;;;5.70;5.30;;;;;;;16.85;69.56;63737.38;5086261;28;20241;-74
2022/05/06 07:46:35;;;;;;;9.95;5.90;;;;;;;16.90;68.28;63745.13;5093828;28;20195;-74
2022/05/06 07:49:03;;;;;;;7.05;5.45;;;;;;;17.03;68.49;63756.09;5088406;28;20230;-74
2022/05/06 07:51:30;;;;;;;7.40;5.00;;;;;;;17.13;66.48;63769.09;5089791;28;20207;-75
2022/05/06 07:53:57;;;;;;;10.18;6.85;;;;;;;17.17;66.42;63770.16;5098089;28;20538;-75
2022/05/06 07:56:25;;;;;;;9.73;6.13;;;;;;;17.42;67.02;63796.16;5097525;28;20211;-74
2022/05/06 07:58:54;;;;;;;6.13;5.07;;;;;;;17.25;65.93;63781.06;5102380;28;20203;-75
2022/05/06 08:04:32;;;;;;;5.22;4.88;;;;;;;17.30;66.62;63783.69;5098020;28;20207;-75
2022/05/06 08:06:54;;;;;;;5.50;5.00;;;;;;;18.02;63.07;63858.66;5083607;28;20202;-74
2022/05/06 08:09:21;;;;;;;5.13;4.82;;;;;;;18.09;63.08;63865.44;5091071;28;20280;-74
2022/05/06 08:11:49;;;;;;;5.47;5.18;;;;;;;18.39;62.17;63899.28;5102438;28;20219;-74
2022/05/06 08:14:17;;;;;;;9.27;5.13;;;;;;;18.62;62.80;63922.75;5101528;28;20287;-75
2022/05/06 08:16:44;;;;;;;5.50;5.10;;;;;;;18.29;61.56;63889.38;5091608;28;20204;-74
2022/05/06 08:19:12;;;;;;;5.88;5.25;;;;;;;18.16;63.44;63872.72;5090465;28;20334;-74
2022/05/06 08:21:39;;;;;;;5.93;4.85;;;;;;;18.37;63.00;63900.31;5099307;28;20206;-73
2022/05/06 08:24:08;;;;;;;6.20;4.90;;;;;;;18.49;63.35;63907.13;5085893;28;20231;-74
2022/05/06 08:26:35;;;;;;;6.53;4.88;;;;;;;18.58;62.88;63916.53;5100156;28;20267;-74
2022/05/06 08:29:02;;;;;;;5.55;4.60;;;;;;;19.08;60.35;63970.69;5092660;28;20566;-74
2022/05/06 08:31:37;;;;;;;6.50;4.72;;;;;;;19.09;58.97;63972.25;5095440;28;20205;-74
2022/05/06 08:34:06;;;;;;;8.85;5.28;;;;;;;19.06;61.02;63966.56;5098036;28;20281;-74
2022/05/06 08:36:34;;;;;;;5.28;4.38;;;;;;;19.08;58.03;63973.28;5090292;28;20202;-74
2022/05/06 08:39:01;;;;;;;4.72;4.53;;;;;;;18.81;59.07;63942.56;5098208;28;20405;-75
2022/05/06 08:41:28;;;;;;;5.32;4.45;;;;;;;19.06;58.87;63966.03;5099745;28;20253;-74
2022/05/06 08:43:56;;;;;;;5.22;4.72;;;;;;;18.95;59.19;63957.66;5098685;28;20427;-75
2022/05/06 08:52:01;;;;;;;4.65;4.40;;;;;;;19.56;58.04;64018.19;5092874;28;20237;-76
2022/05/06 08:54:30;;;;;;;5.05;4.63;;;;;;;19.85;56.22;64051.00;5088471;28;20227;-76
2022/05/06 08:56:58;;;;;;;4.60;4.38;;;;;;;19.89;55.40;64052.59;5101061;28;20196;-75
2022/05/06 08:59:25;;;;;;;5.03;4.53;;;;;;;20.02;54.64;64066.16;5099070;28;20369;-75
2022/05/06 09:01:53;;;;;;;5.00;4.45;;;;;;;20.00;52.99;64060.97;5105996;28;20364;-74
2022/05/06 09:04:22;;;;;;;6.10;4.15;;;;;;;19.81;54.02;64048.91;5098624;28;20245;-74
2022/05/06 09:06:48;;;;;;;6.63;4.72;;;;;;;20.07;53.18;64071.38;5085754;28;20454;-76
2022/05/06 09:09:18;;;;;;;6.47;5.03;;;;;;;20.27;52.97;64091.75;5090251;28;20241;-75
2022/05/06 09:17:37;;;;;;;5.30;3.88;;;;;;;19.76;50.14;64041.13;5053157;28;20217;-76
2022/05/06 09:20:19;;;;;;;4.43;4.03;;;;;;;20.48;49.61;64116.75;5090294;28;20534;-75
2022/05/06 09:22:47;;;;;;;5.10;4.47;;;;;;;20.89;47.80;64158.53;5101173;28;20282;-75
2022/05/06 09:25:34;;;;;;;4.20;3.90;;;;;;;21.52;46.51;64219.69;5099673;28;20278;-75
2022/05/06 09:28:01;;;;;;;3.53;3.35;;;;;;;21.68;46.33;64241.06;5093344;28;20200;-74
2022/05/06 09:30:28;;;;;;;5.28;4.32;;;;;;;21.87;45.35;64260.94;5085490;28;20281;-75
2022/05/06 09:32:55;;;;;;;5.15;3.85;;;;;;;22.10;42.91;64282.38;5086421;28;20431;-75
2022/05/06 09:35:27;;;;;;;3.97;3.78;;;;;;;22.55;42.15;64336.69;5087818;28;20216;-75
2022/05/06 09:37:54;;;;;;;3.80;3.40;;;;;;;22.57;41.27;64334.09;5084825;28;20538;-76
2022/05/06 09:40:22;;;;;;;3.80;3.55;;;;;;;22.25;42.28;64303.22;5087377;28;20220;-74
2022/05/06 09:42:58;;;;;;;4.30;2.83;;;;;;;21.71;41.43;64244.72;5092064;28;20206;-74
2022/05/06 09:45:30;;;;;;;3.67;3.47;;;;;;;21.69;41.91;64244.69;5084162;28;20231;-74
2022/05/06 09:47:57;;;;;;;4.72;4.35;;;;;;;22.05;43.04;64279.75;5084340;28;20208;-75
2022/05/06 09:50:34;;;;;;;4.50;4.03;;;;;;;22.15;41.83;64289.66;5087443;28;20247;-75
2022/05/06 09:53:02;;;;;;;4.40;4.10;;;;;;;22.24;41.65;64302.19;5099225;28;20204;-75
2022/05/06 09:55:30;;;;;;;5.40;3.90;;;;;;;22.28;41.41;64305.84;5091844;28;20242;-76
2022/05/06 09:57:59;;;;;;;3.75;3.45;;;;;;;22.42;41.08;64318.41;5093909;28;20253;-75
2022/05/06 10:00:26;;;;;;;4.13;3.72;;;;;;;22.54;41.49;64327.84;5099024;28;20236;-74
2022/05/06 10:02:53;;;;;;;4.03;3.72;;;;;;;22.74;40.47;64351.88;5086332;28;20200;-75
2022/05/06 10:05:20;;;;;;;4.25;3.88;;;;;;;23.12;40.29;64391.09;5084338;28;20236;-75
2022/05/06 10:07:49;;;;;;;3.58;3.38;;;;;;;23.08;39.21;64386.91;5098833;28;20206;-75
2022/05/06 10:10:26;;;;;;;3.42;3.13;;;;;;;22.46;40.60;64322.06;5088322;28;20235;-74
2022/05/06 10:12:55;;;;;;;4.38;3.97;;;;;;;22.83;39.71;64361.28;5103847;28;20195;-75
2022/05/06 10:15:25;;;;;;;4.32;3.90;;;;;;;21.68;42.11;64246.25;5106686;28;20226;-75
2022/05/06 10:17:54;;;;;;;4.38;4.07;;;;;;;21.86;42.76;64259.88;5093933;28;20388;-75
2022/05/06 10:20:49;;;;;;;3.85;3.65;;;;;;;21.93;42.26;64261.50;5087231;28;20216;-75
2022/05/06 10:23:19;;;;;;;5.32;4.85;;;;;;;22.30;41.36;64300.16;5084330;28;20208;-75
2022/05/06 10:25:52;;;;;;;4.88;4.57;;;;;;;21.68;42.94;64238.47;5084615;28;20284;-75
2022/05/06 10:34:30;;;;;;;4.30;4.00;;;;;;;21.93;42.80;64264.59;5086066;28;20353;-75
2022/05/06 10:37:00;;;;;;;4.32;4.13;;;;;;;21.95;42.87;64269.28;5094368;28;20206;-74
2022/05/06 10:39:34;;;;;;;3.88;3.67;;;;;;;22.24;41.23;64299.59;5104642;28;20294;-75
2022/05/06 10:42:06;;;;;;;4.43;4.10;;;;;;;21.71;42.52;64246.78;5084367;28;20200;-75
2022/05/06 10:44:37;;;;;;;3.60;3.40;;;;;;;21.64;43.46;64234.28;5099282;28;20270;-76
2022/05/06 10:47:25;;;;;;;3.17;3.08;;;;;;;21.23;42.20;64194.56;5105101;28;20227;-75
2022/05/06 10:49:54;;;;;;;3.78;3.58;;;;;;;21.27;42.07;64198.22;5104166;28;20268;-75
2022/05/06 10:52:43;;;;;;;5.25;4.65;;;;;;;21.48;42.44;64223.28;5089743;28;20204;-74
2022/05/06 10:55:14;;;;;;;3.92;3.60;;;;;;;21.77;42.05;64247.88;5083327;28;20236;-74
2022/05/06 10:58:10;;;;;;;4.45;3.83;;;;;;;21.99;41.07;64275.53;5104910;28;20256;-75
2022/05/06 11:00:42;;;;;;;4.60;4.13;;;;;;;22.04;42.46;64278.19;5103060;28;20227;-75
2022/05/06 11:03:09;;;;;;;4.28;3.97;;;;;;;21.96;43.55;64272.94;5087759;28;20219;-75
2022/05/06 11:05:37;;;;;;;3.72;3.55;;;;;;;22.13;42.15;64284.97;5100354;28;20245;-75
2022/05/06 11:08:07;;;;;;;3.60;3.40;;;;;;;22.02;41.45;64279.19;5085871;28;20196;-75
2022/05/06 11:10:36;;;;;;;3.22;3.03;;;;;;;22.01;40.40;64272.97;5097860;28;20303;-75
2022/05/06 11:13:09;;;;;;;3.63;3.40;;;;;;;22.40;40.19;64318.91;5089080;28;20212;-75
2022/05/06 11:15:37;;;;;;;3.47;3.38;;;;;;;22.60;39.43;64334.13;5097226;28;20272;-75
2022/05/06 11:18:06;;;;;;;3.67;3.50;;;;;;;22.72;37.93;64349.78;5087594;28;20192;-76
2022/05/06 11:20:34;;;;;;;3.13;2.95;;;;;;;22.25;39.20;64302.69;5083690;28;20410;-75
2022/05/06 11:23:03;;;;;;;3.30;3.00;;;;;;;22.44;38.86;64328.28;5101388;28;20243;-73
2022/05/06 11:25:32;;;;;;;3.33;3.13;;;;;;;22.82;40.27;64362.31;5084284;28;20266;-75
2022/05/06 11:28:02;;;;;;;3.53;3.35;;;;;;;22.45;39.28;64321.03;5083223;28;20202;-75
2022/05/06 11:30:30;;;;;;;4.63;4.22;;;;;;;22.91;38.92;64369.13;5089713;28;20257;-75
2022/05/06 11:32:59;;;;;;;3.85;3.65;;;;;;;22.77;39.22;64352.44;5098554;28;20202;-75
2022/05/06 11:35:32;;;;;;;3.60;3.40;;;;;;;22.90;38.89;64373.81;5094323;28;20223;-75
2022/05/06 11:38:00;;;;;;;4.55;3.33;;;;;;;22.91;37.88;64366.53;5103234;28;20190;-74
2022/05/06 11:40:35;;;;;;;3.78;3.47;;;;;;;23.50;39.41;64430.34;5098816;28;20229;-75
2022/05/06 11:43:21;;;;;;;3.83;3.63;;;;;;;23.39;38.50;64416.22;5090337;28;20509;-75
2022/05/06 11:48:41;;;;;;;4.07;3.75;;;;;;;23.10;39.28;64385.88;5090371;28;20478;-74
2022/05/06 11:51:09;;;;;;;3.15;2.95;;;;;;;23.13;38.58;64389.00;5098902;28;20541;-75
2022/05/06 11:53:40;;;;;;;4.13;3.83;;;;;;;22.86;38.77;64367.03;5093696;28;20217;-77
2022/05/06 11:56:08;;;;;;;4.35;3.95;;;;;;;22.90;37.61;64368.06;5103578;28;20195;-75
2022/05/06 11:58:37;;;;;;;6.05;3.90;;;;;;;23.23;38.66;64402.59;5099842;28;20206;-75
2022/05/06 12:01:04;;;;;;;3.80;3.50;;;;;;;23.46;36.94;64426.69;5091027;28;20299;-75
2022/05/06 12:03:31;;;;;;;3.08;2.97;;;;;;;23.54;35.35;64435.03;5098478;28;20480;-75
2022/05/06 12:06:04;;;;;;;4.40;3.20;;;;;;;23.17;35.53;64395.81;5101334;28;20249;-75
2022/05/06 12:08:33;;;;;;;3.55;3.45;;;;;;;23.04;37.93;64384.81;5086210;28;20212;-74
2022/05/06 12:11:01;;;;;;;3.85;3.55;;;;;;;23.10;34.41;64389.00;5090229;28;20239;-76
2022/05/06 12:13:33;;;;;;;3.35;3.15;;;;;;;23.30;36.35;64409.94;5094904;28;20195;-75
2022/05/06 12:16:11;;;;;;;3.40;3.20;;;;;;;23.51;35.95;64429.31;5102473;28;20276;-76